createdAt,value
2019-05-02T00:02:11.176Z,43.13
2019-05-02T00:04:37.880Z,45.50
2019-05-02T00:07:08.766Z,41.57
2019-05-02T00:09:36.438Z,41.60
2019-05-02T00:12:05.276Z,39.80
2019-05-02T00:14:32.771Z,44.07
2019-05-02T00:16:59.448Z,43.00
2019-05-02T00:19:26.105Z,41.70
2019-05-02T00:21:52.723Z,45.23
2019-05-02T00:24:19.608Z,46.07
2019-05-02T00:26:46.353Z,45.73
2019-05-02T00:29:13.032Z,45.87
2019-05-02T00:31:41.873Z,44.20
2019-05-02T00:34:08.232Z,44.37
2019-05-02T00:36:35.002Z,47.87
2019-05-02T00:39:01.653Z,46.17
2019-05-02T00:41:28.313Z,50.33
2019-05-02T00:43:54.968Z,49.23
2019-05-02T00:46:21.715Z,49.83
2019-05-02T00:48:54.308Z,48.80
2019-05-02T00:51:21.994Z,48.80
2019-05-02T00:53:49.494Z,50.70
2019-05-02T00:56:15.647Z,52.57
2019-05-02T00:58:42.387Z,47.33
2019-05-02T01:01:30.885Z,48.00
2019-05-02T01:06:49.265Z,50.97
2019-05-02T01:09:15.676Z,50.50
2019-05-02T01:11:42.358Z,50.00
2019-05-02T01:14:08.951Z,48.57
2019-05-02T01:16:35.615Z,45.30
2019-05-02T01:19:02.340Z,52.87
2019-05-02T01:21:29.023Z,48.00
2019-05-02T01:23:58.857Z,47.23
2019-05-02T01:26:29.280Z,48.60
2019-05-02T01:29:05.175Z,45.40
2019-05-02T01:31:33.737Z,47.20
2019-05-02T01:34:13.001Z,45.93
2019-05-02T01:36:57.068Z,47.77
2019-05-02T01:39:23.822Z,47.73
2019-05-02T01:41:50.471Z,47.40
2019-05-02T01:44:17.140Z,48.23
2019-05-02T01:46:43.772Z,50.67
2019-05-02T01:49:10.432Z,48.27
2019-05-02T01:51:41.782Z,47.23
2019-05-02T01:54:09.941Z,49.13
2019-05-02T01:56:34.925Z,48.03
2019-05-02T01:59:01.692Z,47.97
2019-05-02T02:01:28.483Z,45.37
2019-05-02T02:03:55.479Z,49.00
2019-05-02T02:06:22.199Z,51.17
2019-05-02T02:08:48.869Z,48.17
2019-05-02T02:11:15.558Z,45.70
2019-05-02T02:13:42.440Z,46.70
2019-05-02T02:16:09.069Z,47.60
2019-05-02T02:18:37.625Z,44.93
2019-05-02T02:21:08.854Z,47.07
2019-05-02T02:23:44.952Z,45.70
2019-05-02T02:26:13.913Z,47.03
2019-05-02T02:28:40.559Z,46.57
2019-05-02T02:31:07.985Z,41.90
2019-05-02T02:33:41.104Z,42.43
2019-05-02T02:36:03.557Z,45.00
2019-05-02T02:38:33.519Z,44.60
2019-05-02T02:40:58.913Z,46.90
2019-05-02T02:43:34.091Z,46.97
2019-05-02T02:46:12.773Z,46.27
2019-05-02T02:48:40.664Z,50.07
2019-05-02T02:51:08.124Z,46.30
2019-05-02T02:53:34.780Z,47.87
2019-05-02T02:56:04.511Z,45.63
2019-05-02T02:58:44.558Z,50.90
2019-05-02T03:01:03.389Z,50.03
2019-05-02T03:03:34.528Z,49.23
2019-05-02T03:06:05.238Z,48.10
2019-05-02T03:08:27.148Z,47.53
2019-05-02T03:10:53.994Z,49.27
2019-05-02T03:13:25.829Z,49.80
2019-05-02T03:16:11.814Z,47.27
2019-05-02T03:18:40.578Z,51.07
2019-05-02T03:21:07.045Z,49.43
2019-05-02T03:23:33.704Z,51.47
2019-05-02T03:26:00.342Z,46.70
2019-05-02T03:28:27.168Z,49.00
2019-05-02T03:30:54.346Z,49.13
2019-05-02T03:33:21.009Z,49.77
2019-05-02T03:35:48.963Z,50.60
2019-05-02T03:38:16.310Z,51.30
2019-05-02T03:40:43.300Z,53.63
2019-05-02T03:43:09.925Z,49.00
2019-05-02T03:45:40.287Z,52.40
2019-05-02T03:48:05.728Z,55.57
2019-05-02T03:50:35.253Z,50.93
2019-05-02T03:53:01.356Z,53.30
2019-05-02T03:55:30.883Z,53.43
2019-05-02T03:57:56.501Z,52.17
2019-05-02T04:00:24.233Z,52.37
2019-05-02T04:02:59.042Z,51.13
2019-05-02T04:05:20.074Z,50.57
2019-05-02T04:07:46.721Z,52.40
2019-05-02T04:10:25.877Z,51.83
2019-05-02T04:12:58.084Z,53.27
2019-05-02T04:15:21.350Z,48.33
2019-05-02T04:17:47.989Z,50.87
2019-05-02T04:20:14.823Z,50.80
2019-05-02T04:22:48.578Z,50.40
2019-05-02T04:25:10.890Z,51.60
2019-05-02T04:27:37.522Z,50.27
2019-05-02T04:30:11.453Z,50.23
2019-05-02T04:32:33.817Z,48.93
2019-05-02T04:35:00.557Z,47.60
2019-05-02T04:37:27.247Z,47.90
2019-05-02T04:39:58.169Z,45.70
2019-05-02T04:42:23.363Z,48.30
2019-05-02T04:45:12.175Z,49.57
2019-05-02T04:47:21.969Z,50.40
2019-05-02T04:49:51.516Z,47.90
2019-05-02T04:52:18.282Z,47.43
2019-05-02T04:54:44.144Z,47.80
2019-05-02T04:57:10.838Z,49.03
2019-05-02T04:59:39.491Z,49.27
2019-05-02T05:02:08.698Z,44.77
2019-05-02T05:04:42.413Z,47.13
2019-05-02T05:07:04.267Z,47.27
2019-05-02T05:09:30.924Z,46.43
2019-05-02T05:11:58.960Z,45.97
2019-05-02T05:14:31.485Z,47.17
2019-05-02T05:16:56.125Z,44.13
2019-05-02T05:19:27.519Z,43.03
2019-05-02T05:21:56.100Z,46.57
2019-05-02T05:24:24.878Z,46.00
2019-05-02T05:26:52.083Z,44.67
2019-05-02T05:29:23.109Z,44.80
2019-05-02T05:31:48.244Z,47.23
2019-05-02T05:34:16.940Z,46.57
2019-05-02T05:36:43.613Z,43.73
2019-05-02T05:39:11.704Z,43.00
2019-05-02T05:41:42.664Z,41.53
2019-05-02T05:44:07.838Z,42.23
2019-05-02T05:46:40.990Z,42.87
2019-05-02T05:49:03.536Z,41.97
2019-05-02T05:51:30.291Z,41.30
2019-05-02T05:54:02.758Z,40.17
2019-05-02T05:56:27.363Z,38.70
2019-05-02T05:58:54.053Z,36.30
2019-05-02T06:01:25.819Z,39.97
2019-05-02T06:03:49.249Z,38.00
2019-05-02T06:06:22.441Z,37.73
2019-05-02T06:08:44.393Z,38.77
2019-05-02T06:11:14.803Z,37.30
2019-05-02T06:13:43.009Z,38.57
2019-05-02T06:16:10.482Z,38.00
2019-05-02T06:18:41.855Z,37.20
2019-05-02T06:21:08.843Z,36.07
2019-05-02T06:23:36.360Z,37.10
2019-05-02T06:26:07.665Z,36.90
2019-05-02T06:28:31.029Z,37.20
2019-05-02T06:31:02.048Z,36.27
2019-05-02T06:33:30.416Z,37.63
2019-05-02T06:36:14.353Z,36.20
2019-05-02T06:38:41.041Z,37.50
2019-05-02T06:41:07.801Z,36.83
2019-05-02T06:43:34.556Z,38.30
2019-05-02T06:46:01.360Z,36.40
2019-05-02T06:48:28.085Z,33.30
2019-05-02T06:50:56.489Z,35.33
2019-05-02T06:53:24.372Z,32.17
2019-05-02T06:55:51.123Z,33.23
2019-05-02T06:58:17.904Z,30.70
2019-05-02T07:00:56.702Z,32.00
2019-05-02T07:03:13.269Z,31.03
2019-05-02T07:05:40.228Z,31.13
2019-05-02T07:08:12.095Z,32.07
2019-05-02T07:10:44.418Z,30.93
2019-05-02T07:13:10.669Z,28.57
2019-05-02T07:15:41.066Z,30.73
2019-05-02T07:18:10.569Z,30.03
2019-05-02T07:20:40.481Z,30.97
2019-05-02T07:23:10.562Z,31.10
2019-05-02T07:25:39.138Z,33.07
2019-05-02T07:28:04.636Z,31.53
2019-05-02T07:30:35.078Z,31.93
2019-05-02T07:33:02.316Z,31.30
2019-05-02T07:35:29.205Z,28.77
2019-05-02T07:37:55.932Z,30.07
2019-05-02T07:40:22.695Z,30.30
2019-05-02T07:42:49.521Z,31.40
2019-05-02T07:45:16.635Z,31.57
2019-05-02T07:47:43.330Z,31.30
2019-05-02T07:50:11.941Z,28.97
2019-05-02T07:52:41.126Z,31.70
2019-05-02T07:55:10.092Z,32.73
2019-05-02T07:57:36.092Z,33.40
2019-05-02T08:00:08.996Z,32.57
2019-05-02T08:02:35.698Z,30.60
2019-05-02T08:05:02.829Z,29.17
2019-05-02T08:07:34.249Z,30.27
2019-05-02T08:09:57.917Z,31.27
2019-05-02T08:12:24.656Z,31.07
2019-05-02T08:14:51.228Z,32.30
2019-05-02T08:17:19.348Z,32.83
2019-05-02T08:19:46.134Z,30.07
2019-05-02T08:22:14.563Z,31.10
2019-05-02T08:24:41.240Z,31.00
2019-05-02T08:27:15.621Z,28.60
2019-05-02T08:29:42.381Z,30.30
2019-05-02T08:32:09.306Z,29.27
2019-05-02T08:34:35.904Z,27.83
2019-05-02T08:37:03.679Z,27.10
2019-05-02T08:39:33.768Z,27.97
2019-05-02T08:41:59.560Z,28.90
2019-05-02T08:44:27.538Z,28.10
2019-05-02T08:46:54.205Z,28.10
2019-05-02T08:49:20.828Z,29.57
2019-05-02T08:51:49.253Z,29.40
2019-05-02T08:54:15.876Z,31.43
2019-05-02T08:56:42.519Z,27.07
2019-05-02T08:59:09.240Z,27.97
2019-05-02T09:01:35.937Z,29.17
2019-05-02T09:04:03.201Z,28.60
2019-05-02T09:06:29.839Z,27.70
2019-05-02T09:08:56.496Z,28.30
2019-05-02T09:11:23.137Z,24.20
2019-05-02T09:13:49.808Z,25.30
2019-05-02T09:16:16.436Z,22.83
2019-05-02T09:18:50.638Z,21.43
2019-05-02T09:21:12.562Z,23.90
2019-05-02T09:23:41.184Z,23.87
2019-05-02T09:26:07.716Z,23.13
2019-05-02T09:28:34.346Z,23.80
2019-05-02T09:31:02.868Z,24.27
2019-05-02T09:33:32.079Z,25.40
2019-05-02T09:35:57.959Z,23.83
2019-05-02T09:38:24.725Z,22.00
2019-05-02T09:40:54.605Z,21.70
2019-05-02T09:43:22.837Z,23.30
2019-05-02T09:45:51.850Z,21.00
2019-05-02T09:48:22.743Z,21.20
2019-05-02T09:50:46.808Z,21.27
2019-05-02T09:53:20.635Z,22.73
2019-05-02T09:55:49.563Z,21.43
2019-05-02T09:58:16.203Z,20.97
2019-05-02T10:00:57.881Z,20.60
2019-05-02T10:03:24.991Z,21.67
2019-05-02T10:05:52.350Z,20.13
2019-05-02T10:08:19.077Z,17.33
2019-05-02T10:10:46.237Z,16.73
2019-05-02T10:13:13.022Z,19.07
2019-05-02T10:15:41.948Z,16.17
2019-05-02T10:18:11.374Z,23.90
2019-05-02T10:20:36.824Z,23.80
2019-05-02T10:23:03.909Z,22.83
2019-05-02T10:25:38.338Z,21.90
2019-05-02T10:27:59.009Z,25.20
2019-05-02T10:30:27.812Z,27.17
2019-05-02T10:32:57.203Z,25.07
2019-05-02T10:35:40.606Z,25.50
2019-05-02T10:38:09.564Z,26.37
2019-05-02T10:40:34.315Z,27.27
2019-05-02T10:43:02.769Z,26.43
2019-05-02T10:45:31.722Z,24.70
2019-05-02T10:47:58.276Z,24.40
2019-05-02T10:50:29.797Z,25.50
2019-05-02T10:52:56.424Z,25.67
2019-05-02T10:55:24.265Z,24.27
2019-05-02T10:57:52.732Z,24.57
2019-05-02T11:00:23.135Z,24.00
2019-05-02T11:03:02.547Z,23.60
2019-05-02T11:05:31.836Z,23.63
2019-05-02T11:08:04.828Z,23.17
2019-05-02T11:10:27.151Z,24.90
2019-05-02T11:13:12.486Z,24.90
2019-05-02T11:15:57.898Z,22.40
2019-05-02T11:18:39.353Z,18.23
2019-05-02T11:20:59.075Z,20.13
2019-05-02T11:23:25.409Z,18.20
2019-05-02T11:25:52.642Z,19.20
2019-05-02T11:28:19.476Z,17.80
2019-05-02T11:30:46.308Z,19.73
2019-05-02T11:33:13.506Z,16.63
2019-05-02T11:35:41.828Z,16.80
2019-05-02T11:38:09.183Z,14.00
2019-05-02T11:40:36.189Z,13.10
2019-05-02T11:43:06.809Z,15.40
2019-05-02T11:45:32.360Z,16.30
2019-05-02T11:48:01.784Z,14.87
2019-05-02T11:50:31.956Z,15.53
2019-05-02T11:52:56.240Z,12.70
2019-05-02T11:55:24.731Z,13.90
2019-05-02T11:57:52.325Z,11.80
2019-05-02T12:00:19.188Z,12.63
2019-05-02T12:02:49.073Z,11.37
2019-05-02T12:05:22.164Z,13.27
2019-05-02T12:07:48.959Z,11.70
2019-05-02T12:10:15.899Z,12.67
2019-05-02T12:12:42.990Z,12.40
2019-05-02T12:15:11.984Z,11.93
2019-05-02T12:17:38.804Z,10.90
2019-05-02T12:20:05.470Z,9.80
2019-05-02T12:22:32.541Z,10.50
2019-05-02T12:24:59.452Z,8.83
2019-05-02T12:27:26.091Z,11.20
2019-05-02T12:29:57.777Z,12.83
2019-05-02T12:32:22.449Z,11.23
2019-05-02T12:34:49.356Z,11.03
2019-05-02T12:37:16.012Z,10.63
2019-05-02T12:39:42.798Z,12.50
2019-05-02T12:42:09.668Z,13.53
2019-05-02T12:44:36.488Z,12.73
2019-05-02T12:47:03.895Z,14.30
2019-05-02T12:49:32.329Z,12.67
2019-05-02T12:52:18.778Z,12.17
2019-05-02T12:54:45.474Z,14.17
2019-05-02T12:57:12.577Z,13.10
2019-05-02T12:59:39.264Z,12.67
2019-05-02T13:02:07.985Z,11.90
2019-05-02T13:04:34.656Z,10.73
2019-05-02T13:07:02.167Z,11.33
2019-05-02T13:09:29.044Z,13.60
2019-05-02T13:12:00.097Z,13.43
2019-05-02T13:14:28.694Z,12.70
2019-05-02T13:17:01.612Z,12.70
2019-05-02T13:19:37.214Z,11.37
2019-05-02T13:22:13.074Z,11.50
2019-05-02T13:24:42.349Z,11.00
2019-05-02T13:27:12.605Z,10.90
2019-05-02T13:29:39.421Z,10.80
2019-05-02T13:32:18.687Z,10.87
2019-05-02T13:35:02.475Z,11.20
2019-05-02T13:37:29.360Z,10.50
2019-05-02T13:40:06.966Z,10.20
2019-05-02T13:42:33.803Z,9.23
2019-05-02T13:45:14.695Z,9.63
2019-05-02T13:47:42.635Z,8.43
2019-05-02T13:50:09.837Z,7.20
2019-05-02T13:52:36.488Z,7.97
2019-05-02T13:55:09.335Z,9.67
2019-05-02T13:57:41.789Z,9.90
2019-05-02T14:00:06.040Z,9.03
2019-05-02T14:02:38.539Z,11.07
2019-05-02T14:05:12.637Z,9.27
2019-05-02T14:07:42.764Z,8.90
2019-05-02T14:10:14.937Z,9.33
2019-05-02T14:12:58.848Z,10.27
2019-05-02T14:15:27.389Z,9.73
2019-05-02T14:17:54.033Z,9.80
2019-05-02T14:20:22.427Z,10.33
2019-05-02T14:22:49.137Z,7.83
2019-05-02T14:25:15.987Z,7.50
2019-05-02T14:27:46.858Z,7.20
2019-05-02T14:30:12.169Z,7.27
2019-05-02T14:32:39.074Z,6.97
2019-05-02T14:35:11.802Z,7.10
2019-05-02T14:37:38.651Z,7.90
2019-05-02T14:40:08.280Z,8.03
2019-05-02T14:42:34.984Z,8.00
2019-05-02T14:45:11.960Z,8.00
2019-05-02T14:47:32.520Z,8.10
2019-05-02T14:50:02.267Z,7.33
2019-05-02T14:52:27.219Z,6.90
2019-05-02T14:54:55.662Z,7.50
2019-05-02T14:57:27.117Z,7.70
2019-05-02T14:59:59.172Z,8.63
2019-05-02T15:02:22.954Z,7.80
2019-05-02T15:04:49.821Z,8.17
2019-05-02T15:07:17.705Z,9.60
2019-05-02T15:09:44.866Z,8.70
2019-05-02T15:12:16.006Z,9.10
2019-05-02T15:14:40.368Z,8.30
2019-05-02T15:17:07.405Z,8.87
2019-05-02T15:19:34.156Z,9.23
2019-05-02T15:22:02.158Z,9.27
2019-05-02T15:24:33.459Z,9.53
2019-05-02T15:26:57.518Z,11.47
2019-05-02T15:29:27.027Z,12.77
2019-05-02T15:31:58.049Z,11.13
2019-05-02T15:34:27.711Z,10.90
2019-05-02T15:36:54.439Z,11.13
2019-05-02T15:41:49.572Z,12.30
2019-05-02T15:44:18.887Z,11.60
2019-05-02T15:46:44.987Z,11.87
2019-05-02T15:49:12.307Z,12.10
2019-05-02T15:51:45.019Z,11.60
2019-05-02T15:54:12.384Z,12.13
2019-05-02T15:57:00.058Z,11.10
2019-05-02T15:59:32.402Z,11.73
2019-05-02T16:02:02.924Z,11.43
2019-05-02T16:04:34.044Z,12.43
2019-05-02T16:07:06.883Z,12.00
2019-05-02T16:09:29.290Z,11.33
2019-05-02T16:11:57.095Z,10.60
2019-05-02T16:14:27.072Z,12.37
2019-05-02T16:16:52.319Z,11.30
2019-05-02T16:19:27.124Z,12.40
2019-05-02T16:21:49.437Z,12.13
2019-05-02T16:24:19.809Z,11.33
2019-05-02T16:26:48.940Z,12.20
2019-05-02T16:29:23.311Z,14.00
2019-05-02T16:31:49.408Z,12.53
2019-05-02T16:34:16.264Z,12.40
2019-05-02T16:36:43.065Z,12.00
2019-05-02T16:39:13.248Z,11.40
2019-05-02T16:41:41.378Z,11.13
2019-05-02T16:44:08.251Z,10.60
2019-05-02T16:46:34.904Z,11.40
2019-05-02T16:49:01.572Z,12.17
2019-05-02T16:51:32.371Z,9.90
2019-05-02T16:54:01.644Z,11.20
2019-05-02T16:56:25.355Z,10.03
2019-05-02T16:58:52.256Z,12.07
2019-05-02T17:01:26.600Z,10.60
2019-05-02T17:03:47.417Z,10.90
2019-05-02T17:06:17.024Z,10.90
2019-05-02T17:08:44.480Z,10.83
2019-05-02T17:11:15.636Z,10.10
2019-05-02T17:13:41.838Z,10.33
2019-05-02T17:16:15.162Z,9.60
2019-05-02T17:18:37.023Z,10.03
2019-05-02T17:21:03.755Z,10.50
2019-05-02T17:23:30.383Z,10.10
2019-05-02T17:25:57.069Z,10.60
2019-05-02T17:28:23.711Z,10.77
2019-05-02T17:30:52.304Z,9.10
2019-05-02T17:33:18.925Z,9.43
2019-05-02T17:35:49.325Z,9.57
2019-05-02T17:38:14.085Z,9.30
2019-05-02T17:40:42.658Z,9.40
2019-05-02T17:43:09.268Z,9.87
2019-05-02T17:45:38.620Z,9.37
2019-05-02T17:48:09.891Z,9.13
2019-05-02T17:50:56.002Z,9.20
2019-05-02T17:53:19.812Z,9.07
2019-05-02T17:55:46.500Z,8.60
2019-05-02T17:58:16.398Z,9.17
2019-05-02T18:00:47.470Z,21.40
2019-05-02T18:03:15.486Z,22.90
2019-05-02T18:05:42.336Z,27.17
2019-05-02T18:08:10.867Z,30.77
2019-05-02T18:10:37.743Z,32.30
2019-05-02T18:13:04.610Z,30.87
2019-05-02T18:15:34.928Z,33.70
2019-05-02T18:18:06.473Z,34.73
2019-05-02T18:20:28.260Z,36.70
2019-05-02T18:22:54.949Z,34.40
2019-05-02T18:25:25.156Z,35.73
2019-05-02T18:27:51.791Z,35.53
2019-05-02T18:30:24.894Z,37.70
2019-05-02T18:32:47.920Z,37.77
2019-05-02T18:35:14.574Z,35.37
2019-05-02T18:37:42.771Z,37.47
2019-05-02T18:40:11.903Z,37.70
2019-05-02T18:42:38.594Z,40.40
2019-05-02T18:45:08.860Z,39.33
2019-05-02T18:47:35.511Z,38.57
2019-05-02T18:50:06.161Z,39.53
2019-05-02T18:52:38.074Z,40.00
2019-05-02T18:55:01.634Z,41.30
2019-05-02T18:57:29.665Z,39.03
2019-05-02T18:59:58.173Z,41.90
2019-05-02T19:02:26.309Z,39.50
2019-05-02T19:04:53.418Z,41.87
2019-05-02T19:07:30.862Z,36.90
2019-05-02T19:09:51.412Z,39.10
2019-05-02T19:12:22.432Z,40.13
2019-05-02T19:14:45.548Z,38.10
2019-05-02T19:17:12.350Z,38.63
2019-05-02T19:19:39.070Z,41.40
2019-05-02T19:22:07.338Z,41.40
2019-05-02T19:24:36.458Z,40.40
2019-05-02T19:27:02.816Z,40.67
2019-05-02T19:29:31.753Z,39.03
2019-05-02T19:31:58.527Z,36.43
2019-05-02T19:34:26.979Z,37.97
2019-05-02T19:36:57.897Z,36.53
2019-05-02T19:39:24.213Z,36.77
2019-05-02T19:41:52.024Z,34.50
2019-05-02T19:44:21.206Z,33.57
2019-05-02T19:46:47.610Z,30.87
2019-05-02T19:49:16.315Z,30.50
2019-05-02T19:51:43.633Z,30.80
2019-05-02T19:54:12.473Z,31.17
2019-05-02T19:56:43.951Z,32.07
2019-05-02T19:59:07.945Z,23.80
2019-05-02T20:01:35.403Z,18.30
2019-05-02T20:04:06.074Z,16.77
2019-05-02T20:06:32.549Z,13.57
2019-05-02T20:09:04.721Z,11.77
2019-05-02T20:11:32.863Z,10.50
2019-05-02T20:14:00.501Z,11.00
2019-05-02T20:16:31.914Z,10.30
2019-05-02T20:18:58.736Z,10.57
2019-05-02T20:21:33.593Z,10.43
2019-05-02T20:24:03.516Z,11.83
2019-05-02T20:26:29.323Z,11.60
2019-05-02T20:28:55.986Z,11.83
2019-05-02T20:31:23.008Z,12.80
2019-05-02T20:33:51.898Z,12.63
2019-05-02T20:36:18.228Z,12.10
2019-05-02T20:38:44.897Z,10.77
2019-05-02T20:41:12.723Z,11.93
2019-05-02T20:43:42.803Z,12.83
2019-05-02T20:46:08.335Z,13.27
2019-05-02T20:48:35.015Z,14.40
2019-05-02T20:51:02.670Z,12.63
2019-05-02T20:53:33.415Z,13.70
2019-05-02T20:55:58.279Z,14.30
2019-05-02T20:58:24.957Z,13.47
2019-05-02T21:01:04.767Z,15.00
2019-05-02T21:03:20.604Z,16.23
2019-05-02T21:06:04.361Z,15.53
2019-05-02T21:08:35.004Z,14.50
2019-05-02T21:11:04.644Z,15.20
2019-05-02T21:13:32.776Z,14.50
2019-05-02T21:16:01.685Z,17.10
2019-05-02T21:18:28.461Z,15.53
2019-05-02T21:20:55.445Z,16.70
2019-05-02T21:23:22.063Z,15.23
2019-05-02T21:25:49.276Z,16.23
2019-05-02T21:28:16.426Z,15.80
2019-05-02T21:30:43.394Z,16.70
2019-05-02T21:33:37.256Z,17.23
2019-05-02T21:36:04.887Z,15.93
2019-05-02T21:38:31.983Z,13.50
2019-05-02T21:40:58.752Z,15.57
2019-05-02T21:43:25.474Z,15.87
2019-05-02T21:45:52.092Z,15.90
2019-05-02T21:48:19.168Z,15.10
2019-05-02T21:51:04.454Z,16.60
2019-05-02T21:53:33.012Z,16.80
2019-05-02T21:56:04.737Z,14.93
2019-05-02T21:58:32.325Z,15.43
2019-05-02T22:01:03.005Z,16.50
2019-05-02T22:03:29.669Z,15.00
2019-05-02T22:05:56.528Z,14.50
2019-05-02T22:08:23.188Z,15.00
2019-05-02T22:10:52.002Z,13.97
2019-05-02T22:13:18.612Z,14.20
2019-05-02T22:15:45.276Z,14.00
2019-05-02T22:18:13.610Z,13.40
2019-05-02T22:20:40.388Z,14.13
2019-05-02T22:23:07.017Z,13.03
2019-05-02T22:25:34.009Z,12.80
2019-05-02T22:28:01.960Z,13.27
2019-05-02T22:30:28.811Z,13.20
2019-05-02T22:32:55.451Z,12.80
2019-05-02T22:35:22.097Z,11.90
2019-05-02T22:37:50.657Z,12.10
2019-05-02T22:40:17.689Z,11.90
2019-05-02T22:42:44.877Z,13.10
2019-05-02T22:45:12.536Z,13.03
2019-05-02T22:47:39.376Z,13.90
2019-05-02T22:50:06.525Z,12.40
2019-05-02T22:52:33.155Z,12.60
2019-05-02T22:54:59.847Z,13.00
2019-05-02T22:57:26.539Z,12.30
2019-05-02T22:59:53.382Z,11.00
2019-05-02T23:02:21.817Z,13.03
2019-05-02T23:04:48.488Z,11.17
2019-05-02T23:07:15.137Z,10.80
2019-05-02T23:09:43.613Z,10.67
2019-05-02T23:12:10.787Z,11.60
2019-05-02T23:14:37.468Z,9.70
2019-05-02T23:17:04.112Z,9.43
2019-05-02T23:19:31.735Z,10.20
2019-05-02T23:21:58.552Z,9.33
2019-05-02T23:24:39.158Z,10.00
2019-05-02T23:27:18.234Z,9.87
2019-05-02T23:29:44.930Z,9.27
2019-05-02T23:32:11.647Z,9.70
2019-05-02T23:34:38.296Z,8.53
2019-05-02T23:37:05.080Z,10.00
2019-05-02T23:39:32.303Z,9.20
2019-05-02T23:41:59.090Z,9.00
2019-05-02T23:44:25.727Z,10.80
2019-05-02T23:46:52.400Z,9.03
2019-05-02T23:49:19.033Z,8.90
2019-05-02T23:51:45.700Z,8.50
2019-05-02T23:54:12.940Z,9.10
2019-05-02T23:56:40.042Z,8.93
2019-05-02T23:59:06.651Z,9.50
